createdAt,value
2018-09-01T00:00:50.901Z,13.99
2018-09-01T00:01:50.882Z,13.84
2018-09-01T00:02:50.865Z,13.85
2018-09-01T00:03:50.888Z,13.87
2018-09-01T00:04:50.874Z,13.84
2018-09-01T00:05:50.843Z,13.88
2018-09-01T00:06:50.857Z,13.91
2018-09-01T00:07:50.813Z,13.91
2018-09-01T00:08:50.832Z,13.84
2018-09-01T00:09:50.818Z,13.99
2018-09-01T00:10:50.836Z,13.99
2018-09-01T00:11:50.769Z,13.96
2018-09-01T00:12:50.759Z,14.03
2018-09-01T00:13:50.730Z,14.00
2018-09-01T00:14:50.747Z,13.97
2018-09-01T00:15:50.874Z,13.89
2018-09-01T00:16:50.754Z,13.81
2018-09-01T00:17:50.700Z,13.82
2018-09-01T00:18:50.690Z,13.88
2018-09-01T00:19:50.671Z,13.79
2018-09-01T00:20:50.654Z,13.69
2018-09-01T00:21:50.637Z,13.75
2018-09-01T00:22:55.484Z,13.71
2018-09-01T00:23:50.633Z,13.70
2018-09-01T00:24:50.621Z,13.73
2018-09-01T00:25:50.586Z,13.69
2018-09-01T00:26:50.597Z,13.69
2018-09-01T00:27:50.604Z,13.75
2018-09-01T00:28:50.599Z,13.67
2018-09-01T00:29:50.596Z,13.77
2018-09-01T00:30:50.556Z,13.67
2018-09-01T00:31:50.530Z,13.63
2018-09-01T00:32:50.532Z,13.63
2018-09-01T00:33:50.525Z,13.59
2018-09-01T00:34:50.548Z,13.63
2018-09-01T00:35:50.509Z,13.69
2018-09-01T00:36:50.501Z,13.63
2018-09-01T00:37:50.448Z,13.60
2018-09-01T00:38:50.457Z,13.59
2018-09-01T00:39:50.452Z,13.59
2018-09-01T00:40:50.470Z,13.69
2018-09-01T00:41:50.423Z,13.69
2018-09-01T00:42:50.412Z,13.66
2018-09-01T00:43:50.405Z,13.62
2018-09-01T00:44:50.385Z,13.62
2018-09-01T00:45:50.397Z,13.60
2018-09-01T00:46:50.417Z,13.67
2018-09-01T00:47:50.363Z,13.70
2018-09-01T00:48:50.338Z,13.64
2018-09-01T00:49:50.338Z,13.67
2018-09-01T00:50:50.337Z,13.67
2018-09-01T00:51:50.292Z,13.62
2018-09-01T00:52:50.350Z,13.59
2018-09-01T00:53:50.301Z,13.62
2018-09-01T00:54:50.298Z,13.57
2018-09-01T00:55:50.259Z,13.62
2018-09-01T00:56:50.243Z,13.66
2018-09-01T00:57:50.311Z,13.67
2018-09-01T00:58:50.221Z,13.62
2018-09-01T00:59:50.236Z,13.67
2018-09-01T01:00:50.229Z,13.67
2018-09-01T01:01:50.201Z,13.66
2018-09-01T01:02:50.213Z,13.67
2018-09-01T01:03:50.216Z,13.67
2018-09-01T01:04:50.196Z,13.64
2018-09-01T01:05:50.149Z,13.59
2018-09-01T01:06:50.152Z,13.54
2018-09-01T01:07:50.145Z,13.55
2018-09-01T01:08:50.156Z,13.52
2018-09-01T01:09:50.153Z,13.46
2018-09-01T01:10:50.108Z,13.52
2018-09-01T01:11:50.122Z,13.52
2018-09-01T01:12:50.093Z,13.55
2018-09-01T01:13:50.074Z,13.48
2018-09-01T01:14:50.057Z,13.60
2018-09-01T01:15:50.089Z,13.62
2018-09-01T01:16:50.156Z,13.60
2018-09-01T01:17:50.025Z,13.54
2018-09-01T01:18:50.080Z,13.48
2018-09-01T01:19:50.003Z,13.39
2018-09-01T01:20:49.989Z,13.41
2018-09-01T01:21:50.041Z,13.33
2018-09-01T01:22:49.966Z,13.39
2018-09-01T01:23:54.743Z,13.42
2018-09-01T01:24:49.963Z,13.44
2018-09-01T01:25:49.952Z,13.49
2018-09-01T01:26:49.941Z,13.60
2018-09-01T01:27:49.952Z,13.54
2018-09-01T01:28:49.918Z,13.33
2018-09-01T01:29:49.981Z,13.39
2018-09-01T01:30:49.905Z,13.29
2018-09-01T01:31:49.865Z,13.38
2018-09-01T01:32:49.910Z,13.29
2018-09-01T01:33:49.920Z,13.33
2018-09-01T01:34:49.881Z,13.28
2018-09-01T01:35:49.882Z,13.32
2018-09-01T01:36:49.823Z,13.33
2018-09-01T01:37:49.822Z,13.32
2018-09-01T01:38:49.805Z,13.29
2018-09-01T01:39:49.921Z,13.32
2018-09-01T01:40:49.798Z,13.38
2018-09-01T01:41:49.892Z,13.41
2018-09-01T01:42:49.756Z,13.32
2018-09-01T01:43:49.773Z,13.32
2018-09-01T01:44:49.733Z,13.30
2018-09-01T01:45:49.778Z,13.32
2018-09-01T01:46:49.722Z,13.32
2018-09-01T01:47:49.716Z,13.30
2018-09-01T01:48:49.695Z,13.26
2018-09-01T01:49:49.690Z,13.08
2018-09-01T01:50:49.693Z,12.93
2018-09-01T01:51:49.733Z,12.97
2018-09-01T01:52:49.653Z,12.93
2018-09-01T01:53:49.667Z,12.83
2018-09-01T01:54:49.639Z,12.90
2018-09-01T01:55:49.621Z,12.85
2018-09-01T01:56:49.601Z,12.78
2018-09-01T01:57:49.648Z,12.86
2018-09-01T01:58:49.594Z,12.86
2018-09-01T01:59:49.584Z,12.92
2018-09-01T02:00:49.614Z,12.96
2018-09-01T02:01:49.546Z,12.93
2018-09-01T02:02:49.623Z,12.95
2018-09-01T02:03:49.626Z,13.03
2018-09-01T02:04:49.531Z,12.95
2018-09-01T02:05:49.522Z,12.85
2018-09-01T02:06:49.547Z,12.85
2018-09-01T02:07:49.517Z,12.78
2018-09-01T02:08:49.472Z,12.83
2018-09-01T02:09:49.511Z,12.85
2018-09-01T02:10:49.465Z,12.78
2018-09-01T02:11:49.450Z,12.82
2018-09-01T02:12:49.451Z,12.83
2018-09-01T02:13:49.438Z,12.87
2018-09-01T02:14:49.541Z,12.89
2018-09-01T02:15:49.770Z,12.87
2018-09-01T02:16:49.480Z,12.90
2018-09-01T02:17:49.500Z,12.78
2018-09-01T02:18:49.359Z,12.75
2018-09-01T02:19:49.384Z,12.77
2018-09-01T02:20:49.352Z,12.72
2018-09-01T02:21:49.380Z,12.67
2018-09-01T02:22:49.328Z,12.70
2018-09-01T02:23:49.308Z,12.74
2018-09-01T02:24:49.308Z,12.68
2018-09-01T02:25:54.071Z,12.71
2018-09-01T02:26:49.322Z,12.74
2018-09-01T02:27:49.324Z,12.71
2018-09-01T02:28:49.300Z,12.67
2018-09-01T02:29:49.245Z,12.67
2018-09-01T02:30:49.240Z,12.59
2018-09-01T02:31:49.203Z,12.57
2018-09-01T02:32:49.233Z,12.59
2018-09-01T02:33:49.233Z,12.62
2018-09-01T02:34:49.197Z,12.49
2018-09-01T02:35:49.193Z,12.54
2018-09-01T02:36:49.178Z,12.53
2018-09-01T02:37:49.166Z,12.52
2018-09-01T02:38:49.167Z,12.54
2018-09-01T02:39:49.197Z,12.50
2018-09-01T02:40:49.142Z,12.54
2018-09-01T02:41:49.097Z,12.52
2018-09-01T02:42:49.116Z,12.42
2018-09-01T02:43:49.115Z,12.54
2018-09-01T02:44:49.121Z,12.56
2018-09-01T02:45:49.113Z,12.54
2018-09-01T02:46:49.056Z,12.50
2018-09-01T02:47:49.028Z,12.54
2018-09-01T02:48:49.073Z,12.59
2018-09-01T02:49:49.030Z,12.64
2018-09-01T02:51:59.495Z,12.53
2018-09-01T02:52:59.483Z,12.50
2018-09-01T02:53:59.417Z,12.52
2018-09-01T02:54:59.389Z,12.53
2018-09-01T02:55:59.453Z,12.52
2018-09-01T02:56:59.397Z,12.52
2018-09-01T02:57:59.364Z,12.54
2018-09-01T02:58:59.359Z,12.49
2018-09-01T02:59:59.335Z,12.49
2018-09-01T03:00:59.315Z,12.39
2018-09-01T03:01:59.335Z,12.39
2018-09-01T03:02:59.352Z,12.35
2018-09-01T03:03:59.321Z,12.35
2018-09-01T03:04:59.286Z,12.41
2018-09-01T03:05:59.285Z,12.42
2018-09-01T03:06:59.263Z,12.39
2018-09-01T03:07:59.296Z,12.41
2018-09-01T03:08:59.253Z,12.42
2018-09-01T03:09:59.234Z,12.52
2018-09-01T03:10:59.561Z,12.54
2018-09-01T03:11:59.212Z,12.62
2018-09-01T03:12:59.264Z,12.64
2018-09-01T03:13:59.263Z,12.68
2018-09-01T03:14:59.176Z,12.67
2018-09-01T03:15:59.182Z,12.65
2018-09-01T03:16:59.182Z,12.59
2018-09-01T03:17:59.129Z,12.62
2018-09-01T03:18:59.345Z,12.70
2018-09-01T03:19:59.156Z,12.57
2018-09-01T03:20:59.094Z,12.59
2018-09-01T03:21:59.097Z,12.57
2018-09-01T03:22:59.104Z,12.54
2018-09-01T03:23:59.116Z,12.52
2018-09-01T03:24:59.111Z,12.52
2018-09-01T03:25:59.047Z,12.54
2018-09-01T03:27:03.845Z,12.56
2018-09-01T03:27:59.047Z,12.49
2018-09-01T03:28:59.023Z,12.47
2018-09-01T03:29:59.012Z,12.47
2018-09-01T03:30:59.049Z,12.53
2018-09-01T03:31:58.973Z,12.50
2018-09-01T03:32:58.955Z,12.45
2018-09-01T03:33:58.968Z,12.47
2018-09-01T03:34:58.959Z,12.49
2018-09-01T03:35:58.942Z,12.46
2018-09-01T03:36:58.956Z,12.49
2018-09-01T03:37:58.943Z,12.45
2018-09-01T03:38:58.914Z,12.50
2018-09-01T03:39:58.885Z,12.45
2018-09-01T03:40:58.886Z,12.45
2018-09-01T03:41:58.921Z,12.47
2018-09-01T03:42:58.902Z,12.42
2018-09-01T03:43:58.843Z,12.42
2018-09-01T03:44:58.898Z,12.53
2018-09-01T03:45:58.870Z,12.45
2018-09-01T03:46:58.835Z,12.46
2018-09-01T03:47:58.800Z,12.41
2018-09-01T03:48:58.829Z,12.39
2018-09-01T03:49:58.776Z,12.41
2018-09-01T03:50:58.798Z,12.47
2018-09-01T03:51:58.779Z,12.41
2018-09-01T03:52:58.776Z,12.45
2018-09-01T03:53:58.781Z,12.53
2018-09-01T03:54:58.785Z,12.53
2018-09-01T03:55:58.743Z,12.34
2018-09-01T03:56:58.755Z,12.39
2018-09-01T03:57:58.725Z,12.34
2018-09-01T03:58:58.747Z,12.28
2018-09-01T03:59:58.748Z,12.41
2018-09-01T04:00:58.697Z,12.45
2018-09-01T04:01:58.676Z,12.31
2018-09-01T04:02:58.634Z,12.32
2018-09-01T04:03:58.635Z,12.45
2018-09-01T04:04:58.631Z,12.28
2018-09-01T04:05:58.617Z,12.27
2018-09-01T04:06:58.679Z,12.31
2018-09-01T04:07:58.585Z,12.31
2018-09-01T04:08:58.608Z,12.23
2018-09-01T04:09:58.545Z,12.28
2018-09-01T04:10:58.599Z,12.24
2018-09-01T04:11:58.574Z,12.16
2018-09-01T04:12:58.651Z,12.16
2018-09-01T04:13:58.536Z,12.12
2018-09-01T04:14:58.518Z,12.17
2018-09-01T04:15:58.532Z,12.05
2018-09-01T04:16:58.498Z,12.12
2018-09-01T04:17:58.479Z,12.16
2018-09-01T04:20:07.606Z,12.20
2018-09-01T04:21:07.464Z,12.24
2018-09-01T04:22:07.422Z,12.31
2018-09-01T04:23:07.405Z,12.24
2018-09-01T04:24:07.425Z,12.21
2018-09-01T04:25:07.375Z,12.31
2018-09-01T04:26:07.369Z,12.28
2018-09-01T04:27:12.127Z,12.12
2018-09-01T04:28:07.635Z,12.24
2018-09-01T04:29:07.315Z,12.17
2018-09-01T04:30:07.365Z,12.27
2018-09-01T04:31:07.283Z,12.27
2018-09-01T04:32:07.300Z,12.16
2018-09-01T04:33:07.292Z,12.09
2018-09-01T04:34:07.266Z,11.98
2018-09-01T04:35:07.251Z,11.96
2018-09-01T04:36:07.281Z,12.07
2018-09-01T04:37:07.216Z,12.01
2018-09-01T04:38:07.205Z,11.85
2018-09-01T04:39:07.204Z,11.88
2018-09-01T04:40:07.198Z,11.90
2018-09-01T04:41:07.184Z,11.91
2018-09-01T04:42:07.201Z,11.88
2018-09-01T04:43:07.172Z,11.88
2018-09-01T04:44:07.155Z,11.91
2018-09-01T04:45:07.160Z,12.02
2018-09-01T04:46:07.119Z,11.91
2018-09-01T04:47:07.232Z,11.94
2018-09-01T04:48:07.186Z,11.96
2018-09-01T04:49:07.097Z,11.96
2018-09-01T04:50:07.096Z,11.86
2018-09-01T04:52:16.039Z,11.85
2018-09-01T04:53:16.019Z,11.83
2018-09-01T04:54:15.945Z,11.88
2018-09-01T04:55:15.883Z,11.90
2018-09-01T04:56:15.918Z,11.95
2018-09-01T04:57:15.883Z,11.95
2018-09-01T04:58:15.899Z,12.05
2018-09-01T04:59:15.898Z,12.10
2018-09-01T05:00:15.874Z,12.04
2018-09-01T05:01:15.856Z,11.99
2018-09-01T05:02:15.833Z,11.98
2018-09-01T05:03:15.814Z,12.04
2018-09-01T05:04:15.809Z,12.10
2018-09-01T05:05:15.836Z,12.05
2018-09-01T05:06:15.798Z,12.07
2018-09-01T05:07:15.813Z,12.10
2018-09-01T05:08:15.748Z,12.12
2018-09-01T05:09:15.745Z,12.07
2018-09-01T05:10:15.744Z,12.16
2018-09-01T05:11:15.762Z,12.12
2018-09-01T05:12:15.712Z,12.13
2018-09-01T05:13:15.698Z,12.13
2018-09-01T05:14:15.710Z,12.16
2018-09-01T05:15:15.721Z,12.13
2018-09-01T05:16:15.688Z,12.14
2018-09-01T05:17:15.724Z,12.19
2018-09-01T05:18:15.711Z,12.13
2018-09-01T05:19:15.654Z,12.17
2018-09-01T05:20:15.668Z,12.19
2018-09-01T05:21:15.769Z,12.16
2018-09-01T05:22:15.623Z,12.13
2018-09-01T05:23:15.660Z,12.14
2018-09-01T05:24:15.619Z,12.12
2018-09-01T05:25:15.585Z,12.14
2018-09-01T05:26:15.543Z,12.12
2018-09-01T05:27:15.569Z,12.10
2018-09-01T05:28:20.355Z,12.19
2018-09-01T05:29:15.597Z,12.14
2018-09-01T05:30:15.612Z,12.13
2018-09-01T05:31:15.518Z,12.14
2018-09-01T05:32:15.510Z,12.16
2018-09-01T05:33:15.497Z,12.14
2018-09-01T05:34:15.538Z,12.28
2018-09-01T05:35:15.480Z,12.19
2018-09-01T05:36:15.501Z,12.20
2018-09-01T05:37:15.430Z,12.29
2018-09-01T05:38:15.420Z,12.20
2018-09-01T05:39:15.428Z,12.23
2018-09-01T05:40:15.462Z,12.23
2018-09-01T05:41:15.424Z,12.23
2018-09-01T05:42:15.418Z,12.32
2018-09-01T05:43:15.397Z,12.31
2018-09-01T05:44:15.352Z,12.38
2018-09-01T05:45:15.367Z,12.54
2018-09-01T05:46:15.388Z,12.78
2018-09-01T05:47:15.338Z,13.08
2018-09-01T05:48:15.351Z,13.38
2018-09-01T05:49:15.322Z,13.46
2018-09-01T05:50:15.312Z,13.55
2018-09-01T05:51:15.293Z,13.70
2018-09-01T05:52:15.313Z,13.79
2018-09-01T05:53:15.271Z,13.81
2018-09-01T05:54:15.276Z,14.03
2018-09-01T05:55:15.258Z,14.07
2018-09-01T05:56:15.251Z,14.07
2018-09-01T05:57:15.258Z,14.07
2018-09-01T05:58:15.209Z,14.09
2018-09-01T05:59:15.188Z,14.18
2018-09-01T06:00:15.213Z,14.14
2018-09-01T06:01:15.176Z,14.22
2018-09-01T06:02:15.170Z,14.20
2018-09-01T06:03:15.234Z,14.21
2018-09-01T06:04:15.140Z,14.14
2018-09-01T06:05:15.169Z,14.17
2018-09-01T06:06:15.306Z,14.07
2018-09-01T06:07:15.105Z,13.91
2018-09-01T06:08:15.103Z,13.75
2018-09-01T06:09:15.146Z,13.82
2018-09-01T06:10:15.142Z,13.70
2018-09-01T06:11:15.064Z,13.75
2018-09-01T06:12:15.065Z,13.70
2018-09-01T06:13:15.053Z,13.82
2018-09-01T06:14:15.025Z,13.77
2018-09-01T06:15:15.074Z,13.69
2018-09-01T06:16:15.045Z,13.78
2018-09-01T06:17:15.013Z,13.73
2018-09-01T06:18:14.996Z,13.67
2018-09-01T06:19:15.059Z,13.66
2018-09-01T06:20:14.976Z,13.67
2018-09-01T06:21:15.007Z,13.67
2018-09-01T06:22:15.076Z,13.81
2018-09-01T06:23:14.958Z,13.81
2018-09-01T06:24:14.959Z,13.82
2018-09-01T06:25:14.940Z,13.78
2018-09-01T06:26:14.925Z,13.85
2018-09-01T06:27:14.975Z,13.84
2018-09-01T06:28:14.908Z,13.89
2018-09-01T06:29:19.662Z,13.91
2018-09-01T06:30:14.942Z,13.99
2018-09-01T06:31:14.867Z,13.84
2018-09-01T06:32:14.886Z,13.95
2018-09-01T06:33:14.893Z,13.85
2018-09-01T06:34:14.841Z,13.87
2018-09-01T06:35:14.821Z,13.87
2018-09-01T06:36:14.828Z,13.99
2018-09-01T06:37:14.814Z,13.99
2018-09-01T06:38:14.807Z,13.96
2018-09-01T06:39:14.850Z,14.06
2018-09-01T06:40:14.805Z,14.09
2018-09-01T06:41:14.755Z,14.17
2018-09-01T06:42:14.780Z,14.24
2018-09-01T06:43:14.766Z,14.35
2018-09-01T06:44:14.714Z,14.29
2018-09-01T06:45:14.789Z,14.50
2018-09-01T06:46:14.711Z,14.43
2018-09-01T06:47:14.713Z,14.46
2018-09-01T06:48:14.686Z,14.51
2018-09-01T06:49:14.668Z,14.52
2018-09-01T06:50:14.676Z,14.60
2018-09-01T06:51:14.677Z,14.65
2018-09-01T06:52:14.643Z,14.78
2018-09-01T06:54:23.529Z,14.78
2018-09-01T06:55:23.468Z,14.70
2018-09-01T06:56:23.459Z,14.77
2018-09-01T06:57:23.412Z,14.61
2018-09-01T06:58:23.451Z,14.60
2018-09-01T06:59:23.390Z,14.73
2018-09-01T07:00:23.421Z,14.70
2018-09-01T07:01:23.365Z,14.61
2018-09-01T07:02:23.426Z,14.51
2018-09-01T07:03:23.349Z,14.42
2018-09-01T07:04:23.327Z,14.39
2018-09-01T07:05:23.329Z,14.45
2018-09-01T07:06:23.298Z,14.45
2018-09-01T07:07:23.326Z,14.54
2018-09-01T07:08:23.299Z,14.64
2018-09-01T07:09:23.265Z,14.65
2018-09-01T07:10:23.241Z,14.65
2018-09-01T07:11:23.220Z,14.62
2018-09-01T07:12:23.247Z,14.58
2018-09-01T07:13:23.279Z,14.47
2018-09-01T07:14:23.248Z,14.57
2018-09-01T07:15:23.225Z,14.58
2018-09-01T07:16:23.199Z,14.68
2018-09-01T07:17:23.204Z,14.60
2018-09-01T07:18:23.156Z,14.65
2018-09-01T07:19:23.205Z,14.62
2018-09-01T07:20:23.161Z,14.75
2018-09-01T07:21:23.139Z,14.77
2018-09-01T07:22:23.278Z,14.73
2018-09-01T07:23:23.147Z,14.78
2018-09-01T07:24:23.109Z,14.84
2018-09-01T07:25:23.133Z,14.89
2018-09-01T07:26:23.120Z,14.95
2018-09-01T07:27:23.061Z,14.89
2018-09-01T07:28:23.058Z,14.84
2018-09-01T07:29:23.049Z,14.84
2018-09-01T07:30:27.865Z,14.99
2018-09-01T07:31:23.517Z,14.94
2018-09-01T07:32:23.039Z,14.99
2018-09-01T07:33:23.062Z,15.06
2018-09-01T07:34:22.988Z,14.99
2018-09-01T07:35:22.980Z,15.11
2018-09-01T07:36:23.012Z,15.03
2018-09-01T07:37:22.961Z,15.09
2018-09-01T07:38:22.942Z,15.19
2018-09-01T07:39:22.985Z,15.14
2018-09-01T07:41:32.984Z,15.27
2018-09-01T07:42:32.769Z,15.17
2018-09-01T07:43:32.737Z,15.32
2018-09-01T07:44:32.722Z,15.29
2018-09-01T07:45:32.790Z,15.35
2018-09-01T07:46:32.731Z,15.41
2018-09-01T07:47:32.753Z,15.41
2018-09-01T07:48:32.746Z,15.54
2018-09-01T07:49:32.677Z,15.56
2018-09-01T07:50:32.646Z,15.56
2018-09-01T07:51:32.633Z,15.53
2018-09-01T07:52:32.634Z,15.67
2018-09-01T07:54:42.541Z,15.74
2018-09-01T07:55:42.081Z,15.83
2018-09-01T07:56:42.082Z,15.80
2018-09-01T07:57:42.055Z,15.80
2018-09-01T07:58:42.142Z,15.84
2018-09-01T07:59:42.055Z,15.89
2018-09-01T08:00:42.011Z,15.90
2018-09-01T08:01:41.976Z,15.93
2018-09-01T08:02:42.079Z,15.87
2018-09-01T08:03:41.969Z,15.96
2018-09-01T08:04:42.026Z,15.94
2018-09-01T08:05:41.952Z,15.97
2018-09-01T08:06:41.952Z,16.11
2018-09-01T08:07:41.909Z,16.17
2018-09-01T08:08:41.897Z,16.21
2018-09-01T08:09:41.901Z,16.30
2018-09-01T08:10:41.913Z,16.41
2018-09-01T08:11:41.890Z,16.39
2018-09-01T08:12:41.893Z,16.39
2018-09-01T08:13:41.951Z,16.48
2018-09-01T08:14:41.950Z,16.49
2018-09-01T08:15:41.908Z,16.43
2018-09-01T08:16:41.876Z,16.48
2018-09-01T08:17:41.840Z,16.48
2018-09-01T08:18:41.833Z,16.50
2018-09-01T08:19:41.825Z,16.56
2018-09-01T08:20:41.808Z,16.66
2018-09-01T08:21:41.769Z,16.68
2018-09-01T08:22:41.840Z,16.64
2018-09-01T08:23:41.902Z,16.81
2018-09-01T08:24:41.734Z,16.86
2018-09-01T08:25:41.735Z,16.94
2018-09-01T08:26:41.714Z,17.01
2018-09-01T08:27:41.746Z,17.14
2018-09-01T08:28:41.841Z,17.12
2018-09-01T08:29:41.714Z,17.15
2018-09-01T08:30:41.754Z,17.25
2018-09-01T08:31:46.457Z,17.23
2018-09-01T08:32:41.680Z,17.28
2018-09-01T08:33:41.757Z,17.28
2018-09-01T08:34:41.729Z,17.33
2018-09-01T08:35:41.932Z,17.33
2018-09-01T08:36:41.603Z,17.40
2018-09-01T08:37:41.642Z,17.46
2018-09-01T08:38:41.565Z,17.44
2018-09-01T08:39:41.632Z,17.59
2018-09-01T08:40:41.624Z,17.58
2018-09-01T08:41:41.653Z,17.71
2018-09-01T08:42:41.546Z,17.66
2018-09-01T08:43:41.561Z,17.75
2018-09-01T08:44:41.560Z,17.77
2018-09-01T08:45:41.497Z,17.82
2018-09-01T08:46:41.569Z,17.87
2018-09-01T08:47:41.504Z,17.97
2018-09-01T08:48:41.498Z,17.86
2018-09-01T08:49:41.457Z,17.95
2018-09-01T08:50:41.435Z,18.03
2018-09-01T08:51:41.501Z,18.15
2018-09-01T08:52:41.478Z,18.11
2018-09-01T08:53:41.414Z,18.15
2018-09-01T08:54:41.400Z,18.23
2018-09-01T08:55:41.477Z,18.33
2018-09-01T08:56:41.455Z,18.39
2018-09-01T08:57:41.431Z,18.47
2018-09-01T08:58:41.399Z,18.47
2018-09-01T08:59:41.380Z,18.62
2018-09-01T09:00:41.397Z,18.63
2018-09-01T09:01:41.364Z,18.63
2018-09-01T09:02:41.361Z,18.67
2018-09-01T09:03:41.321Z,18.76
2018-09-01T09:04:41.380Z,18.87
2018-09-01T09:05:41.392Z,18.99
2018-09-01T09:06:41.311Z,18.98
2018-09-01T09:07:41.343Z,19.11
2018-09-01T09:08:41.242Z,19.10
2018-09-01T09:09:41.253Z,19.21
2018-09-01T09:10:41.290Z,19.22
2018-09-01T09:11:41.248Z,19.22
2018-09-01T09:12:41.247Z,19.28
2018-09-01T09:13:41.181Z,19.25
2018-09-01T09:14:41.219Z,19.26
2018-09-01T09:15:44.188Z,19.26
2018-09-01T09:16:41.233Z,19.33
2018-09-01T09:17:41.161Z,19.28
2018-09-01T09:18:41.232Z,19.39
2018-09-01T09:19:41.178Z,19.29
2018-09-01T09:20:41.168Z,19.32
2018-09-01T09:21:41.129Z,19.41
2018-09-01T09:22:41.157Z,19.46
2018-09-01T09:23:41.112Z,19.50
2018-09-01T09:24:41.205Z,19.58
2018-09-01T09:25:41.064Z,19.66
2018-09-01T09:26:41.065Z,19.80
2018-09-01T09:27:41.038Z,19.77
2018-09-01T09:28:41.088Z,19.76
2018-09-01T09:29:41.071Z,19.71
2018-09-01T09:30:41.044Z,19.91
2018-09-01T09:31:41.032Z,19.91
2018-09-01T09:32:45.793Z,19.86
2018-09-01T09:33:40.990Z,19.94
2018-09-01T09:34:41.018Z,19.87
2018-09-01T09:35:41.028Z,19.92
2018-09-01T09:36:40.981Z,19.88
2018-09-01T09:37:40.934Z,19.95
2018-09-01T09:38:41.262Z,19.98
2018-09-01T09:39:41.018Z,19.98
2018-09-01T09:40:40.963Z,20.17
2018-09-01T09:41:40.963Z,20.14
2018-09-01T09:42:40.900Z,20.24
2018-09-01T09:43:40.885Z,20.39
2018-09-01T09:44:40.890Z,20.50
2018-09-01T09:45:40.910Z,20.55
2018-09-01T09:46:40.907Z,20.51
2018-09-01T09:47:40.958Z,20.50
2018-09-01T09:48:40.813Z,20.58
2018-09-01T09:49:40.792Z,20.51
2018-09-01T09:50:40.863Z,20.74
2018-09-01T09:51:40.823Z,20.85
2018-09-01T09:52:40.818Z,20.77
2018-09-01T09:53:40.855Z,20.82
2018-09-01T09:54:40.794Z,20.72
2018-09-01T09:55:40.740Z,20.77
2018-09-01T09:56:40.718Z,20.76
2018-09-01T09:57:40.919Z,20.72
2018-09-01T09:58:40.726Z,20.70
2018-09-01T09:59:40.802Z,20.54
2018-09-01T10:00:40.713Z,20.61
2018-09-01T10:01:40.703Z,20.55
2018-09-01T10:02:40.739Z,20.59
2018-09-01T10:03:40.716Z,20.66
2018-09-01T10:04:40.685Z,20.67
2018-09-01T10:05:43.731Z,20.73
2018-09-01T10:06:40.654Z,20.80
2018-09-01T10:07:40.661Z,20.91
2018-09-01T10:08:40.616Z,20.95
2018-09-01T10:09:40.625Z,21.03
2018-09-01T10:10:40.580Z,21.03
2018-09-01T10:11:40.607Z,21.04
2018-09-01T10:12:40.677Z,21.09
2018-09-01T10:13:40.540Z,21.14
2018-09-01T10:14:40.513Z,21.21
2018-09-01T10:15:40.615Z,21.21
2018-09-01T10:16:43.611Z,21.16
2018-09-01T10:17:40.804Z,21.24
2018-09-01T10:18:40.503Z,21.31
2018-09-01T10:19:41.283Z,21.35
2018-09-01T10:20:40.490Z,21.35
2018-09-01T10:21:40.516Z,21.37
2018-09-01T10:22:40.444Z,21.35
2018-09-01T10:23:40.551Z,21.38
2018-09-01T10:24:40.546Z,21.27
2018-09-01T10:25:40.560Z,21.14
2018-09-01T10:26:40.437Z,21.27
2018-09-01T10:27:40.609Z,21.09
2018-09-01T10:28:40.428Z,21.10
2018-09-01T10:29:40.463Z,21.01
2018-09-01T10:30:40.347Z,21.04
2018-09-01T10:31:40.353Z,21.13
2018-09-01T10:32:42.538Z,21.09
2018-09-01T10:33:45.158Z,21.03
2018-09-01T10:34:40.624Z,21.17
2018-09-01T10:35:40.296Z,21.17
2018-09-01T10:36:40.315Z,21.10
2018-09-01T10:37:40.269Z,21.27
2018-09-01T10:38:40.295Z,21.29
2018-09-01T10:39:40.358Z,21.29
2018-09-01T10:40:40.283Z,21.31
2018-09-01T10:41:40.211Z,21.47
2018-09-01T10:42:40.270Z,21.47
2018-09-01T10:43:40.225Z,21.52
2018-09-01T10:44:40.278Z,21.62
2018-09-01T10:45:40.218Z,21.56
2018-09-01T10:46:40.221Z,21.52
2018-09-01T10:47:40.162Z,21.52
2018-09-01T10:48:40.231Z,21.42
2018-09-01T10:49:40.148Z,21.53
2018-09-01T10:50:40.131Z,21.49
2018-09-01T10:51:40.186Z,21.35
2018-09-01T10:52:40.145Z,21.24
2018-09-01T10:53:40.117Z,21.29
2018-09-01T10:54:40.079Z,21.32
2018-09-01T10:55:40.058Z,21.28
2018-09-01T10:56:40.077Z,21.38
2018-09-01T10:57:40.108Z,21.62
2018-09-01T10:58:40.073Z,21.67
2018-09-01T10:59:40.231Z,21.74
2018-09-01T11:00:40.065Z,21.71
2018-09-01T11:01:39.998Z,21.71
2018-09-01T11:02:39.994Z,21.71
2018-09-01T11:03:40.050Z,21.72
2018-09-01T11:04:39.994Z,21.64
2018-09-01T11:05:40.001Z,21.59
2018-09-01T11:06:39.994Z,21.58
2018-09-01T11:07:39.969Z,21.59
2018-09-01T11:08:39.944Z,21.74
2018-09-01T11:09:39.984Z,21.83
2018-09-01T11:10:42.968Z,21.88
2018-09-01T11:11:39.910Z,21.67
2018-09-01T11:12:42.899Z,21.44
2018-09-01T11:13:40.008Z,21.35
2018-09-01T11:14:39.921Z,21.22
2018-09-01T11:15:39.977Z,21.10
2018-09-01T11:16:39.974Z,21.13
2018-09-01T11:17:39.944Z,21.25
2018-09-01T11:18:39.926Z,21.38
2018-09-01T11:19:39.836Z,21.59
2018-09-01T11:20:39.942Z,21.74
2018-09-01T11:21:42.908Z,21.88
2018-09-01T11:22:39.835Z,21.99
2018-09-01T11:23:39.766Z,22.07
2018-09-01T11:24:39.797Z,22.14
2018-09-01T11:25:39.796Z,22.15
2018-09-01T11:26:39.935Z,22.27
2018-09-01T11:27:39.829Z,22.09
2018-09-01T11:28:39.798Z,21.91
2018-09-01T11:29:39.701Z,21.86
2018-09-01T11:30:39.749Z,21.90
2018-09-01T11:31:39.719Z,22.09
2018-09-01T11:32:39.779Z,22.12
2018-09-01T11:33:39.653Z,22.22
2018-09-01T11:34:44.426Z,22.37
2018-09-01T11:35:39.766Z,22.42
2018-09-01T11:36:39.687Z,22.55
2018-09-01T11:37:39.733Z,22.47
2018-09-01T11:38:39.684Z,22.57
2018-09-01T11:39:39.577Z,22.55
2018-09-01T11:40:39.584Z,22.55
2018-09-01T11:41:39.579Z,22.43
2018-09-01T11:42:39.729Z,22.14
2018-09-01T11:43:39.547Z,21.99
2018-09-01T11:44:39.597Z,21.79
2018-09-01T11:45:39.684Z,21.68
2018-09-01T11:46:39.617Z,21.61
2018-09-01T11:47:39.501Z,21.67
2018-09-01T11:48:39.543Z,21.72
2018-09-01T11:49:39.577Z,21.75
2018-09-01T11:50:39.511Z,21.84
2018-09-01T11:51:39.472Z,21.94
2018-09-01T11:52:39.508Z,21.94
2018-09-01T11:53:39.541Z,22.02
2018-09-01T11:54:39.440Z,22.00
2018-09-01T11:55:39.425Z,21.98
2018-09-01T11:56:39.548Z,22.07
2018-09-01T11:58:00.400Z,22.15
2018-09-01T11:58:39.398Z,22.35
2018-09-01T11:59:39.453Z,22.36
2018-09-01T12:00:42.396Z,22.33
2018-09-01T12:01:39.364Z,22.25
2018-09-01T12:02:39.535Z,22.06
2018-09-01T12:03:39.367Z,21.88
2018-09-01T12:04:39.368Z,21.77
2018-09-01T12:05:39.314Z,21.67
2018-09-01T12:06:39.298Z,21.58
2018-09-01T12:07:39.453Z,21.53
2018-09-01T12:08:39.338Z,21.68
2018-09-01T12:09:39.373Z,21.80
2018-09-01T12:10:39.328Z,21.82
2018-09-01T12:11:39.385Z,21.92
2018-09-01T12:12:39.379Z,22.02
2018-09-01T12:13:39.220Z,22.15
2018-09-01T12:14:39.235Z,22.17
2018-09-01T12:15:39.307Z,22.24
2018-09-01T12:16:39.187Z,22.18
2018-09-01T12:17:39.223Z,22.35
2018-09-01T12:18:39.191Z,22.35
2018-09-01T12:19:39.231Z,22.46
2018-09-01T12:20:42.354Z,22.49
2018-09-01T12:21:39.177Z,22.58
2018-09-01T12:22:39.148Z,22.57
2018-09-01T12:23:39.173Z,22.68
2018-09-01T12:24:39.162Z,22.73
2018-09-01T12:25:39.150Z,22.72
2018-09-01T12:26:39.140Z,22.80
2018-09-01T12:27:39.248Z,22.83
2018-09-01T12:28:39.127Z,22.76
2018-09-01T12:29:39.124Z,22.80
2018-09-01T12:30:39.110Z,22.75
2018-09-01T12:31:39.277Z,22.77
2018-09-01T12:32:39.031Z,22.65
2018-09-01T12:33:39.021Z,22.76
2018-09-01T12:34:38.990Z,22.72
2018-09-01T12:35:43.769Z,22.79
2018-09-01T12:36:38.979Z,22.79
2018-09-01T12:37:39.107Z,22.68
2018-09-01T12:38:38.957Z,22.52
2018-09-01T12:39:38.984Z,22.39
2018-09-01T12:40:38.989Z,22.12
2018-09-01T12:41:42.282Z,22.06
2018-09-01T12:42:38.936Z,22.00
2018-09-01T12:43:38.941Z,21.83
2018-09-01T12:44:38.870Z,21.86
2018-09-01T12:45:38.912Z,21.86
2018-09-01T12:46:38.927Z,22.07
2018-09-01T12:47:38.871Z,22.20
2018-09-01T12:48:38.843Z,22.18
2018-09-01T12:49:40.116Z,22.02
2018-09-01T12:50:38.822Z,21.94
2018-09-01T12:51:38.907Z,22.05
2018-09-01T12:52:38.836Z,21.90
2018-09-01T12:53:38.817Z,22.02
2018-09-01T12:54:38.826Z,21.94
2018-09-01T12:55:38.805Z,21.94
2018-09-01T12:56:38.750Z,21.88
2018-09-01T12:57:41.854Z,21.94
2018-09-01T12:58:38.810Z,21.82
2018-09-01T12:59:38.733Z,21.69